sensor_id;sensor_type;location;lat;lon;timestamp;P1;durP1;ratioP1;P2;durP2;ratioP2
4563;SDS011;2294;51.818;8.484;2023-07-08T00:02:08;3.20;;;2.67;;
4563;SDS011;2294;51.818;8.484;2023-07-08T00:04:36;3.30;;;2.70;;
4563;SDS011;2294;51.818;8.484;2023-07-08T00:07:03;7.50;;;2.73;;
4563;SDS011;2294;51.818;8.484;2023-07-08T00:09:32;4.37;;;2.50;;
4563;SDS011;2294;51.818;8.484;2023-07-08T00:11:59;8.10;;;2.67;;
4563;SDS011;2294;51.818;8.484;2023-07-08T00:14:26;3.20;;;2.73;;
4563;SDS011;2294;51.818;8.484;2023-07-08T00:16:53;2.50;;;2.30;;
4563;SDS011;2294;51.818;8.484;2023-07-08T00:19:20;3.30;;;3.00;;
4563;SDS011;2294;51.818;8.484;2023-07-08T00:21:49;4.37;;;3.10;;
4563;SDS011;2294;51.818;8.484;2023-07-08T00:24:17;4.87;;;2.90;;
4563;SDS011;2294;51.818;8.484;2023-07-08T00:26:46;5.70;;;3.57;;
4563;SDS011;2294;51.818;8.484;2023-07-08T00:29:12;5.03;;;2.90;;
4563;SDS011;2294;51.818;8.484;2023-07-08T00:31:42;4.43;;;2.90;;
4563;SDS011;2294;51.818;8.484;2023-07-08T00:34:09;7.27;;;3.20;;
4563;SDS011;2294;51.818;8.484;2023-07-08T00:36:36;4.00;;;3.60;;
4563;SDS011;2294;51.818;8.484;2023-07-08T00:39:04;10.33;;;3.70;;
4563;SDS011;2294;51.818;8.484;2023-07-08T00:41:39;11.33;;;3.37;;
4563;SDS011;2294;51.818;8.484;2023-07-08T00:44:10;4.20;;;3.13;;
4563;SDS011;2294;51.818;8.484;2023-07-08T00:46:40;8.53;;;3.40;;
4563;SDS011;2294;51.818;8.484;2023-07-08T00:49:21;6.17;;;3.67;;
4563;SDS011;2294;51.818;8.484;2023-07-08T00:51:52;5.40;;;2.90;;
4563;SDS011;2294;51.818;8.484;2023-07-08T00:54:20;8.20;;;2.80;;
4563;SDS011;2294;51.818;8.484;2023-07-08T00:56:47;4.27;;;3.50;;
4563;SDS011;2294;51.818;8.484;2023-07-08T00:59:21;4.87;;;3.30;;
4563;SDS011;2294;51.818;8.484;2023-07-08T01:01:53;5.30;;;3.67;;
4563;SDS011;2294;51.818;8.484;2023-07-08T01:04:22;4.87;;;3.40;;
4563;SDS011;2294;51.818;8.484;2023-07-08T01:06:52;9.87;;;3.50;;
4563;SDS011;2294;51.818;8.484;2023-07-08T01:09:24;9.07;;;3.57;;
4563;SDS011;2294;51.818;8.484;2023-07-08T01:11:53;15.80;;;3.43;;
4563;SDS011;2294;51.818;8.484;2023-07-08T01:14:23;8.60;;;3.63;;
4563;SDS011;2294;51.818;8.484;2023-07-08T01:16:52;11.50;;;3.30;;
4563;SDS011;2294;51.818;8.484;2023-07-08T01:19:20;5.37;;;3.70;;
4563;SDS011;2294;51.818;8.484;2023-07-08T01:22:01;10.60;;;3.23;;
4563;SDS011;2294;51.818;8.484;2023-07-08T01:24:30;4.37;;;2.97;;
4563;SDS011;2294;51.818;8.484;2023-07-08T01:26:59;3.57;;;3.27;;
4563;SDS011;2294;51.818;8.484;2023-07-08T01:29:28;3.67;;;3.37;;
4563;SDS011;2294;51.818;8.484;2023-07-08T01:31:55;4.90;;;3.47;;
4563;SDS011;2294;51.818;8.484;2023-07-08T01:34:22;5.53;;;3.30;;
4563;SDS011;2294;51.818;8.484;2023-07-08T01:36:50;4.13;;;3.33;;
4563;SDS011;2294;51.818;8.484;2023-07-08T01:39:22;3.90;;;3.27;;
4563;SDS011;2294;51.818;8.484;2023-07-08T01:41:51;4.27;;;3.07;;
4563;SDS011;2294;51.818;8.484;2023-07-08T01:44:20;5.17;;;3.67;;
4563;SDS011;2294;51.818;8.484;2023-07-08T01:46:50;5.53;;;3.07;;
4563;SDS011;2294;51.818;8.484;2023-07-08T01:49:19;6.17;;;3.27;;
4563;SDS011;2294;51.818;8.484;2023-07-08T01:51:47;6.60;;;3.13;;
4563;SDS011;2294;51.818;8.484;2023-07-08T01:54:15;3.93;;;3.53;;
4563;SDS011;2294;51.818;8.484;2023-07-08T01:56:44;4.50;;;3.43;;
4563;SDS011;2294;51.818;8.484;2023-07-08T01:59:10;5.70;;;3.77;;
4563;SDS011;2294;51.818;8.484;2023-07-08T02:01:37;4.90;;;3.30;;
4563;SDS011;2294;51.818;8.484;2023-07-08T02:04:04;5.37;;;3.30;;
4563;SDS011;2294;51.818;8.484;2023-07-08T02:06:31;5.43;;;3.40;;
4563;SDS011;2294;51.818;8.484;2023-07-08T02:08:58;3.77;;;3.30;;
4563;SDS011;2294;51.818;8.484;2023-07-08T02:11:25;4.80;;;3.87;;
4563;SDS011;2294;51.818;8.484;2023-07-08T02:13:53;6.97;;;3.97;;
4563;SDS011;2294;51.818;8.484;2023-07-08T02:16:20;8.30;;;3.63;;
4563;SDS011;2294;51.818;8.484;2023-07-08T02:18:47;7.07;;;3.73;;
4563;SDS011;2294;51.818;8.484;2023-07-08T02:21:14;5.13;;;3.53;;
4563;SDS011;2294;51.818;8.484;2023-07-08T02:23:42;6.43;;;4.00;;
4563;SDS011;2294;51.818;8.484;2023-07-08T02:26:10;7.10;;;3.87;;
4563;SDS011;2294;51.818;8.484;2023-07-08T02:28:37;4.40;;;3.70;;
4563;SDS011;2294;51.818;8.484;2023-07-08T02:31:05;4.50;;;3.40;;
4563;SDS011;2294;51.818;8.484;2023-07-08T02:33:32;5.20;;;3.50;;
4563;SDS011;2294;51.818;8.484;2023-07-08T02:35:59;3.40;;;3.00;;
4563;SDS011;2294;51.818;8.484;2023-07-08T02:38:26;4.77;;;3.10;;
4563;SDS011;2294;51.818;8.484;2023-07-08T02:40:53;12.40;;;3.63;;
4563;SDS011;2294;51.818;8.484;2023-07-08T02:43:20;5.20;;;3.30;;
4563;SDS011;2294;51.818;8.484;2023-07-08T02:45:48;5.83;;;3.40;;
4563;SDS011;2294;51.818;8.484;2023-07-08T02:48:17;4.27;;;3.43;;
4563;SDS011;2294;51.818;8.484;2023-07-08T02:50:44;5.30;;;3.07;;
4563;SDS011;2294;51.818;8.484;2023-07-08T02:53:11;8.83;;;3.57;;
4563;SDS011;2294;51.818;8.484;2023-07-08T02:55:38;10.73;;;3.50;;
4563;SDS011;2294;51.818;8.484;2023-07-08T02:58:07;5.30;;;3.50;;
4563;SDS011;2294;51.818;8.484;2023-07-08T03:00:34;5.00;;;3.10;;
4563;SDS011;2294;51.818;8.484;2023-07-08T03:03:02;7.30;;;3.67;;
4563;SDS011;2294;51.818;8.484;2023-07-08T03:05:31;5.90;;;3.43;;
4563;SDS011;2294;51.818;8.484;2023-07-08T03:07:58;3.77;;;3.10;;
4563;SDS011;2294;51.818;8.484;2023-07-08T03:10:25;7.97;;;3.30;;
4563;SDS011;2294;51.818;8.484;2023-07-08T03:12:52;8.33;;;3.07;;
4563;SDS011;2294;51.818;8.484;2023-07-08T03:15:19;5.53;;;3.17;;
4563;SDS011;2294;51.818;8.484;2023-07-08T03:17:46;4.37;;;3.50;;
4563;SDS011;2294;51.818;8.484;2023-07-08T03:20:13;5.37;;;3.30;;
4563;SDS011;2294;51.818;8.484;2023-07-08T03:22:42;4.37;;;3.73;;
4563;SDS011;2294;51.818;8.484;2023-07-08T03:25:09;12.90;;;3.30;;
4563;SDS011;2294;51.818;8.484;2023-07-08T03:27:36;4.37;;;3.20;;
4563;SDS011;2294;51.818;8.484;2023-07-08T03:30:03;5.23;;;3.40;;
4563;SDS011;2294;51.818;8.484;2023-07-08T03:32:30;5.07;;;4.57;;
4563;SDS011;2294;51.818;8.484;2023-07-08T03:34:57;4.63;;;2.50;;
4563;SDS011;2294;51.818;8.484;2023-07-08T03:37:26;6.40;;;3.40;;
4563;SDS011;2294;51.818;8.484;2023-07-08T03:39:54;5.00;;;3.67;;
4563;SDS011;2294;51.818;8.484;2023-07-08T03:42:21;4.90;;;3.57;;
4563;SDS011;2294;51.818;8.484;2023-07-08T03:44:48;5.37;;;3.33;;
4563;SDS011;2294;51.818;8.484;2023-07-08T03:47:15;4.07;;;3.20;;
4563;SDS011;2294;51.818;8.484;2023-07-08T03:49:42;5.50;;;2.87;;
4563;SDS011;2294;51.818;8.484;2023-07-08T03:52:09;4.13;;;3.33;;
4563;SDS011;2294;51.818;8.484;2023-07-08T03:54:41;5.00;;;2.87;;
4563;SDS011;2294;51.818;8.484;2023-07-08T03:57:10;6.77;;;3.40;;
4563;SDS011;2294;51.818;8.484;2023-07-08T03:59:37;4.30;;;3.10;;
4563;SDS011;2294;51.818;8.484;2023-07-08T04:02:03;6.00;;;3.80;;
4563;SDS011;2294;51.818;8.484;2023-07-08T04:04:30;4.47;;;3.30;;
4563;SDS011;2294;51.818;8.484;2023-07-08T04:06:57;4.63;;;3.60;;
4563;SDS011;2294;51.818;8.484;2023-07-08T04:09:24;5.50;;;3.23;;
4563;SDS011;2294;51.818;8.484;2023-07-08T04:11:51;4.17;;;3.23;;
4563;SDS011;2294;51.818;8.484;2023-07-08T04:14:20;4.90;;;3.27;;
4563;SDS011;2294;51.818;8.484;2023-07-08T04:16:48;4.20;;;2.70;;
4563;SDS011;2294;51.818;8.484;2023-07-08T04:19:18;5.03;;;3.87;;
4563;SDS011;2294;51.818;8.484;2023-07-08T04:21:45;3.90;;;3.27;;
4563;SDS011;2294;51.818;8.484;2023-07-08T04:24:12;4.80;;;3.40;;
4563;SDS011;2294;51.818;8.484;2023-07-08T04:26:41;5.27;;;3.80;;
4563;SDS011;2294;51.818;8.484;2023-07-08T04:29:11;4.37;;;3.40;;
4563;SDS011;2294;51.818;8.484;2023-07-08T04:31:40;3.80;;;3.20;;
4563;SDS011;2294;51.818;8.484;2023-07-08T04:34:07;4.30;;;3.10;;
4563;SDS011;2294;51.818;8.484;2023-07-08T04:36:35;5.60;;;3.20;;
4563;SDS011;2294;51.818;8.484;2023-07-08T04:39:02;4.13;;;3.20;;
4563;SDS011;2294;51.818;8.484;2023-07-08T04:41:30;4.43;;;3.50;;
4563;SDS011;2294;51.818;8.484;2023-07-08T04:43:58;10.33;;;3.43;;
4563;SDS011;2294;51.818;8.484;2023-07-08T04:46:29;3.90;;;3.17;;
4563;SDS011;2294;51.818;8.484;2023-07-08T04:49:04;8.10;;;3.33;;
4563;SDS011;2294;51.818;8.484;2023-07-08T04:51:31;4.83;;;3.63;;
4563;SDS011;2294;51.818;8.484;2023-07-08T04:53:58;5.93;;;3.30;;
4563;SDS011;2294;51.818;8.484;2023-07-08T04:56:25;6.90;;;3.57;;
4563;SDS011;2294;51.818;8.484;2023-07-08T04:59:00;10.80;;;3.40;;
4563;SDS011;2294;51.818;8.484;2023-07-08T05:01:27;5.83;;;3.20;;
4563;SDS011;2294;51.818;8.484;2023-07-08T05:03:54;4.60;;;3.60;;
4563;SDS011;2294;51.818;8.484;2023-07-08T05:06:22;6.57;;;3.20;;
4563;SDS011;2294;51.818;8.484;2023-07-08T05:08:49;4.97;;;3.70;;
4563;SDS011;2294;51.818;8.484;2023-07-08T05:11:16;6.90;;;3.80;;
4563;SDS011;2294;51.818;8.484;2023-07-08T05:13:43;4.60;;;3.50;;
4563;SDS011;2294;51.818;8.484;2023-07-08T05:16:10;4.13;;;3.00;;
4563;SDS011;2294;51.818;8.484;2023-07-08T05:18:37;5.07;;;3.00;;
4563;SDS011;2294;51.818;8.484;2023-07-08T05:21:04;4.60;;;3.00;;
4563;SDS011;2294;51.818;8.484;2023-07-08T05:23:32;4.30;;;2.97;;
4563;SDS011;2294;51.818;8.484;2023-07-08T05:26:00;6.20;;;3.13;;
4563;SDS011;2294;51.818;8.484;2023-07-08T05:28:27;4.50;;;2.90;;
4563;SDS011;2294;51.818;8.484;2023-07-08T05:30:55;6.37;;;3.13;;
4563;SDS011;2294;51.818;8.484;2023-07-08T05:33:22;3.33;;;3.03;;
4563;SDS011;2294;51.818;8.484;2023-07-08T05:35:49;5.30;;;3.30;;
4563;SDS011;2294;51.818;8.484;2023-07-08T05:38:16;3.47;;;2.60;;
4563;SDS011;2294;51.818;8.484;2023-07-08T05:40:49;5.30;;;3.37;;
4563;SDS011;2294;51.818;8.484;2023-07-08T05:43:16;5.20;;;3.33;;
4563;SDS011;2294;51.818;8.484;2023-07-08T05:45:43;4.23;;;3.10;;
4563;SDS011;2294;51.818;8.484;2023-07-08T05:48:10;4.37;;;3.10;;
4563;SDS011;2294;51.818;8.484;2023-07-08T05:50:38;4.23;;;2.77;;
4563;SDS011;2294;51.818;8.484;2023-07-08T05:53:05;5.03;;;2.70;;
4563;SDS011;2294;51.818;8.484;2023-07-08T05:55:35;6.10;;;3.03;;
4563;SDS011;2294;51.818;8.484;2023-07-08T05:58:04;3.90;;;2.83;;
4563;SDS011;2294;51.818;8.484;2023-07-08T06:00:30;5.63;;;2.70;;
4563;SDS011;2294;51.818;8.484;2023-07-08T06:02:57;7.33;;;3.97;;
4563;SDS011;2294;51.818;8.484;2023-07-08T06:05:24;5.03;;;2.80;;
4563;SDS011;2294;51.818;8.484;2023-07-08T06:07:51;3.60;;;2.83;;
4563;SDS011;2294;51.818;8.484;2023-07-08T06:10:18;3.83;;;2.13;;
4563;SDS011;2294;51.818;8.484;2023-07-08T06:12:45;4.30;;;2.43;;
4563;SDS011;2294;51.818;8.484;2023-07-08T06:15:13;4.67;;;2.60;;
4563;SDS011;2294;51.818;8.484;2023-07-08T06:17:40;4.60;;;3.50;;
4563;SDS011;2294;51.818;8.484;2023-07-08T06:20:07;6.33;;;3.10;;
4563;SDS011;2294;51.818;8.484;2023-07-08T06:22:34;7.47;;;3.40;;
4563;SDS011;2294;51.818;8.484;2023-07-08T06:25:01;8.40;;;3.20;;
4563;SDS011;2294;51.818;8.484;2023-07-08T06:27:29;6.47;;;2.70;;
4563;SDS011;2294;51.818;8.484;2023-07-08T06:29:55;3.20;;;2.50;;
4563;SDS011;2294;51.818;8.484;2023-07-08T06:32:24;5.23;;;3.03;;
4563;SDS011;2294;51.818;8.484;2023-07-08T06:34:50;5.20;;;2.90;;
4563;SDS011;2294;51.818;8.484;2023-07-08T06:37:17;3.10;;;2.43;;
4563;SDS011;2294;51.818;8.484;2023-07-08T06:39:44;4.27;;;2.73;;
4563;SDS011;2294;51.818;8.484;2023-07-08T06:42:11;3.50;;;2.63;;
4563;SDS011;2294;51.818;8.484;2023-07-08T06:44:38;5.50;;;3.33;;
4563;SDS011;2294;51.818;8.484;2023-07-08T06:47:05;11.40;;;3.20;;
4563;SDS011;2294;51.818;8.484;2023-07-08T06:49:33;5.47;;;2.73;;
4563;SDS011;2294;51.818;8.484;2023-07-08T06:52:00;5.97;;;2.60;;
4563;SDS011;2294;51.818;8.484;2023-07-08T06:54:27;5.53;;;2.87;;
4563;SDS011;2294;51.818;8.484;2023-07-08T06:56:54;6.50;;;3.10;;
4563;SDS011;2294;51.818;8.484;2023-07-08T06:59:20;5.87;;;2.80;;
4563;SDS011;2294;51.818;8.484;2023-07-08T07:01:47;6.73;;;2.70;;
4563;SDS011;2294;51.818;8.484;2023-07-08T07:04:14;4.70;;;3.33;;
4563;SDS011;2294;51.818;8.484;2023-07-08T07:06:42;6.73;;;3.40;;
4563;SDS011;2294;51.818;8.484;2023-07-08T07:09:09;4.27;;;2.87;;
4563;SDS011;2294;51.818;8.484;2023-07-08T07:11:36;2.97;;;2.37;;
4563;SDS011;2294;51.818;8.484;2023-07-08T07:14:03;4.83;;;2.73;;
4563;SDS011;2294;51.818;8.484;2023-07-08T07:16:30;8.90;;;3.40;;
4563;SDS011;2294;51.818;8.484;2023-07-08T07:18:57;6.50;;;2.70;;
4563;SDS011;2294;51.818;8.484;2023-07-08T07:21:24;4.30;;;2.20;;
4563;SDS011;2294;51.818;8.484;2023-07-08T07:23:52;8.13;;;3.27;;
4563;SDS011;2294;51.818;8.484;2023-07-08T07:26:19;7.37;;;3.63;;
4563;SDS011;2294;51.818;8.484;2023-07-08T07:28:45;3.47;;;2.97;;
4563;SDS011;2294;51.818;8.484;2023-07-08T07:31:12;8.03;;;3.77;;
4563;SDS011;2294;51.818;8.484;2023-07-08T07:33:39;7.30;;;2.67;;
4563;SDS011;2294;51.818;8.484;2023-07-08T07:36:06;3.80;;;2.70;;
4563;SDS011;2294;51.818;8.484;2023-07-08T07:38:33;7.20;;;3.37;;
4563;SDS011;2294;51.818;8.484;2023-07-08T07:41:01;3.87;;;2.90;;
4563;SDS011;2294;51.818;8.484;2023-07-08T07:43:31;3.40;;;2.60;;
4563;SDS011;2294;51.818;8.484;2023-07-08T07:45:58;9.40;;;3.33;;
4563;SDS011;2294;51.818;8.484;2023-07-08T07:48:25;3.43;;;2.63;;
4563;SDS011;2294;51.818;8.484;2023-07-08T07:50:52;11.23;;;3.40;;
4563;SDS011;2294;51.818;8.484;2023-07-08T07:53:19;8.00;;;3.43;;
4563;SDS011;2294;51.818;8.484;2023-07-08T07:55:46;6.03;;;3.03;;
4563;SDS011;2294;51.818;8.484;2023-07-08T07:58:14;4.90;;;2.40;;
4563;SDS011;2294;51.818;8.484;2023-07-08T08:00:41;4.23;;;2.80;;
4563;SDS011;2294;51.818;8.484;2023-07-08T08:03:08;5.30;;;3.23;;
4563;SDS011;2294;51.818;8.484;2023-07-08T08:05:34;11.70;;;3.30;;
4563;SDS011;2294;51.818;8.484;2023-07-08T08:08:01;7.70;;;3.13;;
4563;SDS011;2294;51.818;8.484;2023-07-08T08:10:29;3.80;;;2.90;;
4563;SDS011;2294;51.818;8.484;2023-07-08T08:12:55;4.13;;;2.63;;
4563;SDS011;2294;51.818;8.484;2023-07-08T08:15:24;4.53;;;3.03;;
4563;SDS011;2294;51.818;8.484;2023-07-08T08:17:51;3.37;;;2.70;;
4563;SDS011;2294;51.818;8.484;2023-07-08T08:20:18;4.63;;;2.90;;
4563;SDS011;2294;51.818;8.484;2023-07-08T08:22:45;11.20;;;3.00;;
4563;SDS011;2294;51.818;8.484;2023-07-08T08:25:13;5.03;;;3.53;;
4563;SDS011;2294;51.818;8.484;2023-07-08T08:27:40;3.50;;;2.50;;
4563;SDS011;2294;51.818;8.484;2023-07-08T08:30:08;8.83;;;2.70;;
4563;SDS011;2294;51.818;8.484;2023-07-08T08:32:36;5.37;;;3.10;;
4563;SDS011;2294;51.818;8.484;2023-07-08T08:35:03;6.17;;;2.73;;
4563;SDS011;2294;51.818;8.484;2023-07-08T08:37:31;6.20;;;3.30;;
4563;SDS011;2294;51.818;8.484;2023-07-08T08:39:58;5.97;;;3.67;;
4563;SDS011;2294;51.818;8.484;2023-07-08T08:42:26;5.63;;;3.07;;
4563;SDS011;2294;51.818;8.484;2023-07-08T08:44:56;10.17;;;3.30;;
4563;SDS011;2294;51.818;8.484;2023-07-08T08:47:27;6.07;;;2.80;;
4563;SDS011;2294;51.818;8.484;2023-07-08T08:50:04;9.23;;;3.17;;
4563;SDS011;2294;51.818;8.484;2023-07-08T08:52:49;5.63;;;2.87;;
4563;SDS011;2294;51.818;8.484;2023-07-08T08:55:19;6.23;;;3.43;;
4563;SDS011;2294;51.818;8.484;2023-07-08T08:57:47;5.10;;;3.50;;
4563;SDS011;2294;51.818;8.484;2023-07-08T09:00:21;4.50;;;3.17;;
4563;SDS011;2294;51.818;8.484;2023-07-08T09:02:55;5.40;;;3.30;;
4563;SDS011;2294;51.818;8.484;2023-07-08T09:05:29;4.00;;;2.77;;
4563;SDS011;2294;51.818;8.484;2023-07-08T09:08:00;7.33;;;3.43;;
4563;SDS011;2294;51.818;8.484;2023-07-08T09:10:35;5.33;;;3.47;;
4563;SDS011;2294;51.818;8.484;2023-07-08T09:13:11;6.70;;;3.57;;
4563;SDS011;2294;51.818;8.484;2023-07-08T09:15:44;8.10;;;3.53;;
4563;SDS011;2294;51.818;8.484;2023-07-08T09:18:14;6.33;;;3.30;;
4563;SDS011;2294;51.818;8.484;2023-07-08T09:20:47;7.30;;;4.00;;
4563;SDS011;2294;51.818;8.484;2023-07-08T09:23:17;5.47;;;3.53;;
4563;SDS011;2294;51.818;8.484;2023-07-08T09:25:49;10.70;;;3.60;;
4563;SDS011;2294;51.818;8.484;2023-07-08T09:28:38;5.00;;;3.80;;
4563;SDS011;2294;51.818;8.484;2023-07-08T09:31:07;6.60;;;3.83;;
4563;SDS011;2294;51.818;8.484;2023-07-08T09:33:37;5.33;;;3.63;;
4563;SDS011;2294;51.818;8.484;2023-07-08T09:36:17;4.90;;;3.47;;
4563;SDS011;2294;51.818;8.484;2023-07-08T09:38:47;7.30;;;3.77;;
4563;SDS011;2294;51.818;8.484;2023-07-08T09:41:17;5.10;;;3.60;;
4563;SDS011;2294;51.818;8.484;2023-07-08T09:44:02;4.30;;;3.57;;
4563;SDS011;2294;51.818;8.484;2023-07-08T09:46:48;4.83;;;3.93;;
4563;SDS011;2294;51.818;8.484;2023-07-08T09:49:16;5.40;;;3.63;;
4563;SDS011;2294;51.818;8.484;2023-07-08T09:51:50;8.53;;;3.70;;
4563;SDS011;2294;51.818;8.484;2023-07-08T09:54:18;7.00;;;3.80;;
4563;SDS011;2294;51.818;8.484;2023-07-08T09:56:52;8.23;;;3.73;;
4563;SDS011;2294;51.818;8.484;2023-07-08T09:59:23;8.77;;;3.40;;
4563;SDS011;2294;51.818;8.484;2023-07-08T10:01:56;5.97;;;3.83;;
4563;SDS011;2294;51.818;8.484;2023-07-08T10:04:26;5.50;;;4.10;;
4563;SDS011;2294;51.818;8.484;2023-07-08T10:06:55;8.27;;;3.93;;
4563;SDS011;2294;51.818;8.484;2023-07-08T10:09:24;6.93;;;3.63;;
4563;SDS011;2294;51.818;8.484;2023-07-08T10:11:52;5.07;;;3.57;;
4563;SDS011;2294;51.818;8.484;2023-07-08T10:14:24;4.40;;;3.70;;
4563;SDS011;2294;51.818;8.484;2023-07-08T10:16:54;5.83;;;3.23;;
4563;SDS011;2294;51.818;8.484;2023-07-08T10:19:21;6.60;;;3.80;;
4563;SDS011;2294;51.818;8.484;2023-07-08T10:21:51;5.70;;;3.23;;
4563;SDS011;2294;51.818;8.484;2023-07-08T10:24:30;5.37;;;3.53;;
4563;SDS011;2294;51.818;8.484;2023-07-08T10:27:08;5.93;;;3.50;;
4563;SDS011;2294;51.818;8.484;2023-07-08T10:29:43;9.37;;;3.67;;
4563;SDS011;2294;51.818;8.484;2023-07-08T10:32:18;7.43;;;3.37;;
4563;SDS011;2294;51.818;8.484;2023-07-08T10:34:52;5.60;;;3.30;;
4563;SDS011;2294;51.818;8.484;2023-07-08T10:37:28;5.30;;;3.50;;
4563;SDS011;2294;51.818;8.484;2023-07-08T10:40:19;5.10;;;3.73;;
4563;SDS011;2294;51.818;8.484;2023-07-08T10:43:12;6.63;;;4.60;;
4563;SDS011;2294;51.818;8.484;2023-07-08T10:46:09;4.70;;;3.77;;
4563;SDS011;2294;51.818;8.484;2023-07-08T10:51:46;4.90;;;3.97;;
4563;SDS011;2294;51.818;8.484;2023-07-08T10:54:29;5.93;;;4.37;;
4563;SDS011;2294;51.818;8.484;2023-07-08T10:57:13;7.40;;;3.90;;
4563;SDS011;2294;51.818;8.484;2023-07-08T10:59:58;12.10;;;5.00;;
4563;SDS011;2294;51.818;8.484;2023-07-08T11:02:44;4.30;;;3.27;;
4563;SDS011;2294;51.818;8.484;2023-07-08T11:05:44;5.47;;;3.90;;
4563;SDS011;2294;51.818;8.484;2023-07-08T11:08:14;5.20;;;3.50;;
4563;SDS011;2294;51.818;8.484;2023-07-08T11:10:49;4.40;;;3.53;;
4563;SDS011;2294;51.818;8.484;2023-07-08T11:13:19;4.93;;;3.87;;
4563;SDS011;2294;51.818;8.484;2023-07-08T11:15:50;5.00;;;3.97;;
4563;SDS011;2294;51.818;8.484;2023-07-08T11:18:22;5.30;;;3.60;;
4563;SDS011;2294;51.818;8.484;2023-07-08T11:20:56;8.57;;;4.47;;
4563;SDS011;2294;51.818;8.484;2023-07-08T11:23:29;5.87;;;4.20;;
4563;SDS011;2294;51.818;8.484;2023-07-08T11:26:05;5.10;;;4.00;;
4563;SDS011;2294;51.818;8.484;2023-07-08T11:28:40;5.17;;;4.10;;
4563;SDS011;2294;51.818;8.484;2023-07-08T11:31:07;4.30;;;3.83;;
4563;SDS011;2294;51.818;8.484;2023-07-08T11:33:35;5.27;;;4.00;;
4563;SDS011;2294;51.818;8.484;2023-07-08T11:36:03;8.10;;;3.83;;
4563;SDS011;2294;51.818;8.484;2023-07-08T11:38:31;7.80;;;4.33;;
4563;SDS011;2294;51.818;8.484;2023-07-08T11:41:00;7.30;;;4.30;;
4563;SDS011;2294;51.818;8.484;2023-07-08T11:43:34;5.47;;;3.80;;
4563;SDS011;2294;51.818;8.484;2023-07-08T11:46:11;7.50;;;3.90;;
4563;SDS011;2294;51.818;8.484;2023-07-08T11:48:41;6.53;;;4.37;;
4563;SDS011;2294;51.818;8.484;2023-07-08T11:51:14;6.77;;;4.20;;
4563;SDS011;2294;51.818;8.484;2023-07-08T11:53:47;5.57;;;4.13;;
4563;SDS011;2294;51.818;8.484;2023-07-08T11:56:20;7.47;;;4.57;;
4563;SDS011;2294;51.818;8.484;2023-07-08T11:58:51;4.57;;;3.80;;
4563;SDS011;2294;51.818;8.484;2023-07-08T12:01:25;5.93;;;4.37;;
4563;SDS011;2294;51.818;8.484;2023-07-08T12:03:55;8.30;;;4.53;;
4563;SDS011;2294;51.818;8.484;2023-07-08T12:06:42;6.60;;;4.40;;
4563;SDS011;2294;51.818;8.484;2023-07-08T12:09:19;6.70;;;4.70;;
4563;SDS011;2294;51.818;8.484;2023-07-08T12:11:48;7.07;;;5.00;;
4563;SDS011;2294;51.818;8.484;2023-07-08T12:14:20;9.00;;;4.37;;
4563;SDS011;2294;51.818;8.484;2023-07-08T12:16:48;8.60;;;3.83;;
4563;SDS011;2294;51.818;8.484;2023-07-08T12:19:16;9.83;;;4.33;;
4563;SDS011;2294;51.818;8.484;2023-07-08T12:21:46;7.07;;;4.23;;
4563;SDS011;2294;51.818;8.484;2023-07-08T12:24:14;9.00;;;4.30;;
4563;SDS011;2294;51.818;8.484;2023-07-08T12:26:41;5.30;;;4.17;;
4563;SDS011;2294;51.818;8.484;2023-07-08T12:29:09;6.77;;;4.33;;
4563;SDS011;2294;51.818;8.484;2023-07-08T12:31:40;8.80;;;3.63;;
4563;SDS011;2294;51.818;8.484;2023-07-08T12:34:10;12.00;;;4.43;;
4563;SDS011;2294;51.818;8.484;2023-07-08T12:36:40;7.80;;;4.30;;
4563;SDS011;2294;51.818;8.484;2023-07-08T12:39:09;6.37;;;4.40;;
4563;SDS011;2294;51.818;8.484;2023-07-08T12:41:40;9.63;;;4.40;;
4563;SDS011;2294;51.818;8.484;2023-07-08T12:44:13;6.87;;;4.70;;
4563;SDS011;2294;51.818;8.484;2023-07-08T12:46:45;7.53;;;4.17;;
4563;SDS011;2294;51.818;8.484;2023-07-08T12:49:13;8.20;;;4.17;;
4563;SDS011;2294;51.818;8.484;2023-07-08T12:51:41;6.23;;;4.33;;
4563;SDS011;2294;51.818;8.484;2023-07-08T12:54:10;9.43;;;5.13;;
4563;SDS011;2294;51.818;8.484;2023-07-08T12:56:37;7.97;;;4.87;;
4563;SDS011;2294;51.818;8.484;2023-07-08T12:59:05;6.30;;;3.93;;
4563;SDS011;2294;51.818;8.484;2023-07-08T13:01:34;7.03;;;4.57;;
4563;SDS011;2294;51.818;8.484;2023-07-08T13:04:05;15.00;;;4.50;;
4563;SDS011;2294;51.818;8.484;2023-07-08T13:06:35;8.43;;;4.37;;
4563;SDS011;2294;51.818;8.484;2023-07-08T13:09:07;6.00;;;4.30;;
4563;SDS011;2294;51.818;8.484;2023-07-08T13:11:41;5.40;;;3.83;;
4563;SDS011;2294;51.818;8.484;2023-07-08T13:14:08;5.47;;;4.40;;
4563;SDS011;2294;51.818;8.484;2023-07-08T13:16:36;8.47;;;5.00;;
4563;SDS011;2294;51.818;8.484;2023-07-08T13:19:04;7.03;;;4.40;;
4563;SDS011;2294;51.818;8.484;2023-07-08T13:21:31;7.20;;;4.60;;
4563;SDS011;2294;51.818;8.484;2023-07-08T13:23:58;7.77;;;4.60;;
4563;SDS011;2294;51.818;8.484;2023-07-08T13:26:27;7.63;;;4.43;;
4563;SDS011;2294;51.818;8.484;2023-07-08T13:28:59;5.50;;;4.50;;
4563;SDS011;2294;51.818;8.484;2023-07-08T13:31:31;8.40;;;4.73;;
4563;SDS011;2294;51.818;8.484;2023-07-08T13:34:05;6.50;;;4.67;;
4563;SDS011;2294;51.818;8.484;2023-07-08T13:36:35;7.87;;;4.87;;
4563;SDS011;2294;51.818;8.484;2023-07-08T13:39:07;10.90;;;5.07;;
4563;SDS011;2294;51.818;8.484;2023-07-08T13:41:36;7.50;;;4.87;;
4563;SDS011;2294;51.818;8.484;2023-07-08T13:44:04;6.07;;;4.47;;
4563;SDS011;2294;51.818;8.484;2023-07-08T13:46:33;6.17;;;4.50;;
4563;SDS011;2294;51.818;8.484;2023-07-08T13:49:09;11.60;;;5.23;;
4563;SDS011;2294;51.818;8.484;2023-07-08T13:51:39;5.80;;;4.10;;
4563;SDS011;2294;51.818;8.484;2023-07-08T13:54:09;6.77;;;4.83;;
4563;SDS011;2294;51.818;8.484;2023-07-08T13:56:41;8.03;;;4.17;;
4563;SDS011;2294;51.818;8.484;2023-07-08T13:59:09;8.33;;;5.13;;
4563;SDS011;2294;51.818;8.484;2023-07-08T14:01:41;9.93;;;4.93;;
4563;SDS011;2294;51.818;8.484;2023-07-08T14:04:09;6.87;;;4.67;;
4563;SDS011;2294;51.818;8.484;2023-07-08T14:06:39;6.60;;;5.10;;
4563;SDS011;2294;51.818;8.484;2023-07-08T14:09:09;8.97;;;5.70;;
4563;SDS011;2294;51.818;8.484;2023-07-08T14:11:39;8.10;;;4.83;;
4563;SDS011;2294;51.818;8.484;2023-07-08T14:14:06;7.30;;;4.87;;
4563;SDS011;2294;51.818;8.484;2023-07-08T14:16:34;9.23;;;5.20;;
4563;SDS011;2294;51.818;8.484;2023-07-08T14:19:05;6.00;;;4.83;;
4563;SDS011;2294;51.818;8.484;2023-07-08T14:21:38;9.53;;;5.80;;
4563;SDS011;2294;51.818;8.484;2023-07-08T14:24:08;5.77;;;4.63;;
4563;SDS011;2294;51.818;8.484;2023-07-08T14:26:36;6.80;;;4.50;;
4563;SDS011;2294;51.818;8.484;2023-07-08T14:29:04;7.10;;;4.20;;
4563;SDS011;2294;51.818;8.484;2023-07-08T14:31:31;4.83;;;4.30;;
4563;SDS011;2294;51.818;8.484;2023-07-08T14:34:00;6.70;;;4.17;;
4563;SDS011;2294;51.818;8.484;2023-07-08T14:36:30;4.40;;;3.77;;
4563;SDS011;2294;51.818;8.484;2023-07-08T14:38:59;6.97;;;4.97;;
4563;SDS011;2294;51.818;8.484;2023-07-08T14:41:26;5.60;;;4.50;;
4563;SDS011;2294;51.818;8.484;2023-07-08T14:43:54;5.97;;;4.57;;
4563;SDS011;2294;51.818;8.484;2023-07-08T14:46:21;9.73;;;4.43;;
4563;SDS011;2294;51.818;8.484;2023-07-08T14:48:48;8.70;;;4.60;;
4563;SDS011;2294;51.818;8.484;2023-07-08T14:51:15;12.47;;;5.27;;
4563;SDS011;2294;51.818;8.484;2023-07-08T14:53:42;5.13;;;4.57;;
4563;SDS011;2294;51.818;8.484;2023-07-08T14:56:13;12.13;;;5.17;;
4563;SDS011;2294;51.818;8.484;2023-07-08T14:58:43;5.57;;;4.70;;
4563;SDS011;2294;51.818;8.484;2023-07-08T15:01:14;5.17;;;4.63;;
4563;SDS011;2294;51.818;8.484;2023-07-08T15:03:42;7.90;;;5.30;;
4563;SDS011;2294;51.818;8.484;2023-07-08T15:06:09;8.37;;;4.43;;
4563;SDS011;2294;51.818;8.484;2023-07-08T15:08:37;7.07;;;5.00;;
4563;SDS011;2294;51.818;8.484;2023-07-08T15:11:04;5.60;;;4.40;;
4563;SDS011;2294;51.818;8.484;2023-07-08T15:13:33;7.77;;;4.67;;
4563;SDS011;2294;51.818;8.484;2023-07-08T15:16:01;5.83;;;4.93;;
4563;SDS011;2294;51.818;8.484;2023-07-08T15:18:27;6.57;;;4.33;;
4563;SDS011;2294;51.818;8.484;2023-07-08T15:20:54;5.70;;;4.43;;
4563;SDS011;2294;51.818;8.484;2023-07-08T15:23:21;10.03;;;4.50;;
4563;SDS011;2294;51.818;8.484;2023-07-08T15:25:48;6.33;;;4.53;;
4563;SDS011;2294;51.818;8.484;2023-07-08T15:28:16;6.40;;;4.77;;
4563;SDS011;2294;51.818;8.484;2023-07-08T15:30:49;7.83;;;4.67;;
4563;SDS011;2294;51.818;8.484;2023-07-08T15:33:17;4.60;;;3.80;;